Flight Track Log - Related Links

Times and Time Zones

All times are in EDT time to prevent confusion due to time zone crossing. See the SWA1688 flight status page for this flight to view local times or setup timezone preferences in your user account.

Time Position Orientation Groundspeed Altitude Reporting Facility
EDT Latitude Longitude Course Direction KTS MPH feet Rate Location/Type
Mon 09:24:03 PM 28.4000 -81.3000 147° Southeast 164 189 900  Level Orlando TRACON
Mon 09:25:28 PM 28.3333 -81.2500 147° Southeast 227 261 5,500 3,352 Climbing Orlando TRACON
Mon 09:26:28 PM 28.3667 -81.2000 53° Northeast 252 290 9,000 2,727 Climbing Orlando TRACON
Mon 09:28:02 PM 28.4897 -81.2322 347° North 298 343 12,500 2,766 Climbing Jacksonville Center
Mon 09:29:02 PM 28.5861 -81.2542 349° North 328 377 16,100 3,500 Climbing Jacksonville Center
Mon 09:30:02 PM 28.6825 -81.2811 346° North 344 396 19,500 3,150 Climbing Jacksonville Center
Mon 09:31:02 PM 28.7869 -81.3078 347° North 361 415 22,400 2,767 Climbing Jacksonville Center
Mon 09:33:02 PM 29.0028 -81.3614 348° North 390 449 27,800 2,500 Climbing Jacksonville Center
Mon 09:34:02 PM 29.1136 -81.3928 346° North 396 456 29,900 1,750 Climbing Jacksonville Center
Mon 09:35:02 PM 29.2328 -81.4028 356° North 407 468 31,300 1,450 Climbing Jacksonville Center
Mon 09:36:02 PM 29.3603 -81.4153 355° North 433 498 32,800 1,400 Climbing Jacksonville Center
Mon 09:37:02 PM 29.4878 -81.4300 354° North 446 513 34,100 1,500 Climbing Jacksonville Center
Mon 09:38:02 PM 29.6172 -81.4400 356° North 459 528 35,800 1,800 Climbing Jacksonville Center
Mon 09:39:02 PM 29.7469 -81.4525 355° North 464 534 37,700 1,433 Climbing Jacksonville Center
Mon 09:41:02 PM 30.0203 -81.4436 North 467 537 40,100 1,100 Climbing Jacksonville Center
Mon 09:42:02 PM 30.1517 -81.4319 North 473 544 41,000 450 Climbing Jacksonville Center
Mon 09:43:02 PM 30.2850 -81.4131 North 480 552 41,000  Level Jacksonville Center
Mon 09:44:02 PM 30.4183 -81.3869 10° North 480 552 41,000  Level Jacksonville Center
Mon 09:45:02 PM 30.5492 -81.3222 23° Northeast 492 566 41,000  Level Jacksonville Center
Mon 09:46:02 PM 30.6756 -81.2575 24° Northeast 492 566 41,000  Level Jacksonville Center
Mon 09:47:02 PM 30.8022 -81.1900 25° Northeast 492 566 41,000  Level Jacksonville Center
Mon 09:48:02 PM 30.9286 -81.1222 25° Northeast 492 566 41,000  Level Jacksonville Center
Mon 09:49:02 PM 31.0550 -81.0519 25° Northeast 497 572 41,000  Level Jacksonville Center
Mon 09:50:02 PM 31.1792 -80.9864 24° Northeast 494 568 41,000  Level Jacksonville Center
Mon 09:52:02 PM 31.4297 -80.8522 25° Northeast 489 563 41,000  Level Jacksonville Center
Mon 09:53:02 PM 31.5539 -80.7861 24° Northeast 482 555 41,000  Level Jacksonville Center
Mon 09:54:02 PM 31.6658 -80.7275 24° Northeast 482 555 41,000  Level Jacksonville Center
Mon 09:55:02 PM 31.8022 -80.6533 25° Northeast 482 555 41,000  Level Jacksonville Center
Mon 09:57:02 PM 32.0483 -80.5200 25° Northeast 482 555 41,000  Level Jacksonville Center
Mon 09:58:02 PM 32.1556 -80.4583 26° Northeast 477 549 41,000  Level Jacksonville Center
Mon 09:59:02 PM 32.2775 -80.3911 25° Northeast 482 555 41,000  Level Jacksonville Center
Mon 10:00:02 PM 32.4014 -80.3239 25° Northeast 482 555 41,000  Level Jacksonville Center
Mon 10:01:02 PM 32.5253 -80.2564 25° Northeast 482 555 41,000  Level Jacksonville Center
Mon 10:02:02 PM 32.6492 -80.1886 25° Northeast 482 555 41,000  Level Jacksonville Center
Mon 10:03:02 PM 32.7831 -80.1103 26° Northeast 482 555 41,000  Level Jacksonville Center
Mon 10:04:02 PM 32.9047 -80.0397 26° Northeast 482 555 41,000  Level Jacksonville Center
Mon 10:05:02 PM 33.0325 -79.9714 24° Northeast 482 555 41,000  Level Jacksonville Center
Mon 10:06:02 PM 33.1581 -79.9003 25° Northeast 487 560 41,000  Level Jacksonville Center
Mon 10:07:02 PM 33.2839 -79.8339 24° Northeast 487 560 41,000  Level Jacksonville Center
Mon 10:08:02 PM 33.4053 -79.7625 26° Northeast 487 560 41,000  Level Jacksonville Center
Mon 10:09:02 PM 33.5289 -79.6933 25° Northeast 487 560 41,000  Level Jacksonville Center
Mon 10:10:02 PM 33.6542 -79.6217 25° Northeast 493 567 41,000  Level Jacksonville Center
Mon 10:11:02 PM 33.7775 -79.5519 25° Northeast 493 567 41,000  Level Jacksonville Center
Mon 10:12:02 PM 33.9011 -79.4847 24° Northeast 493 567 41,000  Level Jacksonville Center
Mon 10:13:02 PM 33.9975 -79.4283 26° Northeast 487 560 41,000  Level Jacksonville Center
Mon 10:14:02 PM 34.1247 -79.3556 25° Northeast 473 544 41,000  Level Jacksonville Center
Mon 10:16:26 PM 34.4119 -79.1867 26° Northeast 487 560 41,000  Level Washington Center
Mon 10:17:26 PM 34.5392 -79.1167 24° Northeast 487 560 41,000  Level Washington Center
Mon 10:18:26 PM 34.6561 -79.0483 26° Northeast 482 555 41,000  Level Washington Center
Mon 10:19:26 PM 34.7792 -78.9753 26° Northeast 477 549 41,000  Level Washington Center
Mon 10:20:27 PM 34.9042 -78.9019 26° Northeast 477 549 41,000  Level Washington Center
Mon 10:21:25 PM 35.0253 -78.8308 26° Northeast 477 549 41,000  Level Washington Center
Mon 10:22:25 PM 35.1461 -78.7594 26° Northeast 477 549 41,000  Level Washington Center
Mon 10:23:27 PM 35.2689 -78.6881 25° Northeast 477 549 41,000  Level Washington Center
Mon 10:24:27 PM 35.4089 -78.6042 26° Northeast 490 564 41,000  Level Washington Center
Mon 10:25:24 PM 35.5167 -78.5394 26° Northeast 490 564 41,000  Level Washington Center
Mon 10:26:24 PM 35.6564 -78.4578 25° Northeast 490 564 41,000  Level Washington Center
Mon 10:27:26 PM 35.7750 -78.3878 26° Northeast 490 564 41,000  Level Washington Center
Mon 10:28:26 PM 35.8956 -78.3125 27° Northeast 490 564 41,000  Level Washington Center
Mon 10:29:24 PM 36.0183 -78.2397 26° Northeast 485 558 41,000  Level Washington Center
Mon 10:30:25 PM 36.1389 -78.1692 25° Northeast 480 552 41,000  Level Washington Center
Mon 10:31:24 PM 36.2636 -78.0933 26° Northeast 480 552 41,000  Level Washington Center
Mon 10:32:26 PM 36.3839 -78.0197 26° Northeast 480 552 41,000  Level Washington Center
Mon 10:33:24 PM 36.5022 -77.9458 27° Northeast 475 547 41,000  Level Washington Center
Mon 10:34:26 PM 36.6225 -77.8719 26° Northeast 475 547 41,000  Level Washington Center
Mon 10:35:26 PM 36.7386 -77.7975 27° Northeast 470 541 41,000  Level Washington Center
Mon 10:37:00 PM 36.8976 -77.6842 26° Northeast  Level FlightAware Approximate
Mon 10:38:25 PM 37.0972 -77.5786 26° Northeast 469 540 41,000  Level Washington Center
Mon 10:39:26 PM 37.2153 -77.5061 26° Northeast 469 540 41,000  Level Washington Center
Mon 10:41:24 PM 37.4492 -77.3550 27° Northeast 469 540 41,000  Level Washington Center
Mon 10:42:25 PM 37.5569 -77.2578 36° Northeast 469 540 41,000  Level Washington Center
Mon 10:43:25 PM 37.6436 -77.1603 42° Northeast 469 540 41,000  Level Washington Center
Mon 10:44:26 PM 37.7411 -77.0467 43° Northeast 464 534 41,000  Level Washington Center
Mon 10:45:26 PM 37.8361 -76.9328 43° Northeast 464 534 41,000  Level Washington Center
Mon 10:46:24 PM 37.9292 -76.8211 43° Northeast 464 534 41,000  Level Washington Center
Mon 10:47:25 PM 38.0242 -76.7094 43° Northeast 464 534 41,000  Level Washington Center
Mon 10:48:25 PM 38.1211 -76.6000 42° Northeast 459 528 41,000  Level Washington Center
Mon 10:49:24 PM 38.2136 -76.4850 44° Northeast 454 522 41,000  Level Washington Center
Mon 10:50:24 PM 38.3167 -76.3750 40° Northeast 455 524 41,000  Level Washington Center
Mon 10:51:25 PM 38.4214 -76.2781 36° Northeast 450 518 41,000  Level Washington Center
Mon 10:52:25 PM 38.5261 -76.1808 36° Northeast 450 518 41,000  Level Washington Center
Mon 10:53:24 PM 38.6206 -76.0911 37° Northeast 464 534 41,000  Level Washington Center
Mon 10:54:25 PM 38.7272 -75.9961 35° Northeast 464 534 41,000  Level Washington Center
Mon 10:55:24 PM 38.8317 -75.9008 35° Northeast 464 534 41,000  Level Washington Center
Mon 10:56:26 PM 38.9339 -75.7997 38° Northeast 464 534 41,000  Level Washington Center
Mon 10:57:24 PM 39.0361 -75.7039 36° Northeast 458 527 41,000  Level Washington Center
Mon 10:58:24 PM 39.1383 -75.6075 36° Northeast 453 521 41,000 -100 Level Washington Center
Mon 10:59:24 PM 39.2406 -75.5086 37° Northeast 453 521 40,800 -600 Descending Washington Center
Mon 11:00:24 PM 39.3447 -75.4172 34° Northeast 453 521 39,800 -942 Descending Washington Center
Mon 11:01:25 PM 39.4444 -75.3256 35° Northeast 447 514 38,900 -934 Descending Washington Center
Mon 11:02:26 PM 39.5422 -75.2364 35° Northeast 442 509 37,900 -942 Descending Washington Center
Mon 11:03:26 PM 39.6522 -75.1361 35° Northeast 442 509 37,000 -911 Descending Washington Center
Mon 11:04:18 PM 39.7397 -75.0581 34° Northeast 439 505 36,200 -964 Descending New York Center
Mon 11:05:18 PM 39.8450 -74.9697 33° Northeast 439 505 35,200 -600 Descending New York Center
Mon 11:06:18 PM 39.9208 -74.8850 41° Northeast 439 505 35,000 -99 Descending New York Center
Mon 11:07:19 PM 40.0358 -74.7561 41° Northeast 447 514 35,000 -150 Level New York Center
Mon 11:08:18 PM 40.1289 -74.6503 41° Northeast 447 514 34,700 -650 Descending New York Center
Mon 11:09:19 PM 40.2356 -74.5775 28° Northeast 427 491 33,700 -908 Descending New York Center
Mon 11:10:17 PM 40.3578 -74.5350 15° North 437 503 32,900 -957 Descending New York Center
Mon 11:12:02 PM 40.5731 -74.4756 12° North 438 504 31,100 -1,055 Descending Boston Center
Mon 11:13:02 PM 40.6906 -74.4381 14° North 431 496 30,000 -1,050 Descending Boston Center
Mon 11:14:02 PM 40.8078 -74.4033 13° North 431 496 29,000 -950 Descending Boston Center
Mon 11:15:02 PM 40.9167 -74.3792 10° North 438 504 28,100 -864 Descending Boston Center
Mon 11:16:14 PM 41.0275 -74.3442 13° North 432 497 27,100 -875 Descending Boston Center
Mon 11:17:26 PM 41.1617 -74.3039 13° North 415 478 26,000 -500 Descending Boston Center
Mon 11:18:26 PM 41.3019 -74.2556 15° North 410 472 26,000  Level Boston Center
Mon 11:19:26 PM 41.4108 -74.2225 13° North 400 460 26,000 -50 Level Boston Center
Mon 11:20:26 PM 41.4989 -74.1944 13° North 400 460 25,900 -1,300 Descending Boston Center
Mon 11:21:26 PM 41.6225 -74.1592 12° North 400 460 23,400 -2,331 Descending Boston Center
Mon 11:22:27 PM 41.7250 -74.1258 14° North 386 444 21,200 -2,200 Descending Boston Center
Mon 11:23:26 PM 41.8214 -74.0975 12° North 365 420 19,000 -2,218 Descending Boston Center
Mon 11:24:26 PM 41.9281 -74.0642 13° North 351 404 16,800 -2,150 Descending Boston Center
Mon 11:25:26 PM 42.0139 -74.0356 14° North 356 410 14,700 -2,250 Descending Boston Center
Mon 11:26:26 PM 42.1186 -74.0047 12° North 351 404 12,300 -1,721 Descending Boston Center
Mon 11:27:35 PM 42.2253 -73.9764 11° North 333 383 11,000 -1,100 Descending Boston Center
Mon 11:28:26 PM 42.2942 -73.9669 North 316 364 10,100 -1,289 Descending Boston Center
Mon 11:29:36 PM 42.3903 -73.9553 North 292 336 8,400 -1,328 Descending Boston Center
Mon 11:30:37 PM 42.4697 -73.9458 North 287 330 7,200 -1,339 Descending Boston Center
Mon 11:31:37 PM 42.5428 -73.9364 North 267 307 5,700 -1,388 Descending Boston Center
Mon 11:32:38 PM 42.6178 -73.9242 North 268 308 4,400 -1,230 Descending Boston Center
Mon 11:33:39 PM 42.6869 -73.9089 North 248 285 3,200 -893 Descending Boston Center
Mon 11:34:39 PM 42.7536 -73.8964 North 235 270 2,600 -496 Descending Boston Center
Mon 11:35:40 PM 42.8019 -73.8692 22° Northeast 167 192 2,200 -694 Descending Boston Center
Mon 11:36:40 PM 42.8047 -73.8183 86° East 114 131 1,200 -793 Descending Boston Center
Mon 11:37:41 PM 42.7756 -73.8064 163° South 105 121 600 -590 Descending Boston Center

Login

Don't have an account? Register now (free) for customized features, flight alerts, and more!